createdAt,value
2023-07-24T00:01:10.605Z,3.40
2023-07-24T00:03:37.166Z,3.80
2023-07-24T00:06:03.883Z,1.98
2023-07-24T00:08:32.082Z,1.55
2023-07-24T00:10:58.903Z,1.77
2023-07-24T00:13:25.508Z,2.38
2023-07-24T00:15:52.644Z,2.05
2023-07-24T00:18:19.307Z,3.55
2023-07-24T00:20:45.904Z,4.25
2023-07-24T00:23:12.777Z,1.95
2023-07-24T00:25:39.416Z,1.77
2023-07-24T00:28:06.230Z,2.17
2023-07-24T00:30:32.779Z,2.17
2023-07-24T00:32:59.660Z,2.92
2023-07-24T00:35:27.608Z,2.22
2023-07-24T00:37:54.166Z,1.95
2023-07-24T00:40:20.813Z,2.10
2023-07-24T00:42:50.790Z,2.00
2023-07-24T00:45:17.536Z,2.35
2023-07-24T00:47:44.632Z,2.25
2023-07-24T00:50:13.003Z,5.03
2023-07-24T00:52:39.963Z,3.20
2023-07-24T00:55:07.365Z,3.03
2023-07-24T00:57:34.684Z,3.17
2023-07-24T01:00:01.556Z,3.22
2023-07-24T01:02:28.619Z,2.80
2023-07-24T01:04:55.270Z,3.05
2023-07-24T01:07:21.985Z,2.95
2023-07-24T01:09:49.002Z,4.20
2023-07-24T01:12:23.850Z,1.70
2023-07-24T01:14:55.878Z,3.08
2023-07-24T01:17:26.065Z,3.25
2023-07-24T01:20:05.456Z,3.65
2023-07-24T01:26:20.573Z,2.92
2023-07-24T01:28:48.361Z,3.15
2023-07-24T01:31:15.229Z,3.75
2023-07-24T01:33:42.738Z,2.50
2023-07-24T01:36:10.675Z,2.40
2023-07-24T01:38:38.123Z,1.92
2023-07-24T01:41:05.114Z,2.22
2023-07-24T01:43:33.293Z,2.90
2023-07-24T01:45:59.986Z,2.22
2023-07-24T01:48:26.614Z,2.45
2023-07-24T01:50:53.458Z,2.60
2023-07-24T01:53:20.034Z,2.25
2023-07-24T01:55:46.746Z,2.45
2023-07-24T01:58:13.581Z,4.78
2023-07-24T02:00:40.131Z,3.30
2023-07-24T02:03:06.894Z,2.42
2023-07-24T02:05:33.632Z,3.50
2023-07-24T02:08:00.283Z,2.25
2023-07-24T02:10:26.892Z,2.58
2023-07-24T02:12:53.737Z,2.50
2023-07-24T02:15:20.377Z,2.70
2023-07-24T02:17:47.273Z,2.75
2023-07-24T02:20:13.864Z,2.25
2023-07-24T02:22:40.688Z,2.70
2023-07-24T02:25:07.534Z,4.05
2023-07-24T02:27:35.841Z,3.78
2023-07-24T02:32:30.284Z,2.95
2023-07-24T02:34:57.046Z,2.63
2023-07-24T02:37:23.798Z,3.58
2023-07-24T02:39:50.472Z,2.95
2023-07-24T02:42:16.956Z,4.03
2023-07-24T02:44:43.700Z,3.30
2023-07-24T02:47:10.539Z,3.33
2023-07-24T02:49:37.315Z,3.90
2023-07-24T02:52:04.181Z,3.13
2023-07-24T02:54:31.129Z,3.40
2023-07-24T02:56:59.245Z,3.10
2023-07-24T02:59:26.202Z,3.15
2023-07-24T03:01:53.126Z,3.17
2023-07-24T03:04:20.012Z,3.42
2023-07-24T03:06:46.630Z,4.75
2023-07-24T03:09:13.464Z,3.63
2023-07-24T03:11:40.088Z,3.65
2023-07-24T03:14:06.905Z,3.83
2023-07-24T03:16:34.926Z,3.33
2023-07-24T03:19:01.588Z,3.97
2023-07-24T03:21:28.195Z,5.38
2023-07-24T03:23:54.815Z,3.30
2023-07-24T03:26:21.345Z,6.45
2023-07-24T03:28:47.938Z,4.50
2023-07-24T03:31:14.962Z,4.05
2023-07-24T03:33:41.808Z,3.83
2023-07-24T03:36:08.457Z,5.80
2023-07-24T03:38:36.074Z,4.57
2023-07-24T03:41:02.631Z,4.28
2023-07-24T03:43:29.204Z,4.63
2023-07-24T03:45:56.046Z,4.28
2023-07-24T03:48:22.901Z,3.35
2023-07-24T03:50:51.658Z,3.22
2023-07-24T03:53:18.440Z,3.90
2023-07-24T03:55:45.591Z,3.92
2023-07-24T03:58:12.353Z,4.15
2023-07-24T04:00:39.042Z,4.05
2023-07-24T04:03:05.903Z,4.32
2023-07-24T04:05:32.601Z,6.43
2023-07-24T04:07:59.509Z,3.92
2023-07-24T04:10:26.065Z,4.45
2023-07-24T04:12:52.851Z,6.47
2023-07-24T04:15:19.782Z,6.93
2023-07-24T04:17:46.481Z,4.85
2023-07-24T04:20:13.146Z,5.85
2023-07-24T04:22:39.954Z,4.40
2023-07-24T04:25:07.218Z,3.63
2023-07-24T04:27:33.833Z,3.92
2023-07-24T04:30:00.678Z,3.80
2023-07-24T04:32:28.809Z,4.50
2023-07-24T04:34:55.530Z,4.93
2023-07-24T04:37:22.346Z,4.88
2023-07-24T04:39:48.898Z,3.78
2023-07-24T04:42:15.549Z,4.20
2023-07-24T04:44:42.224Z,4.07
2023-07-24T04:47:08.821Z,4.85
2023-07-24T04:49:35.953Z,3.67
2023-07-24T04:52:02.563Z,5.13
2023-07-24T04:54:29.839Z,4.00
2023-07-24T04:56:56.492Z,4.60
2023-07-24T04:59:23.108Z,5.07
2023-07-24T05:01:49.803Z,3.95
2023-07-24T05:04:16.537Z,3.72
2023-07-24T05:06:43.167Z,4.45
2023-07-24T05:09:10.030Z,4.07
2023-07-24T05:11:36.832Z,3.88
2023-07-24T05:14:03.750Z,3.65
2023-07-24T05:16:30.828Z,3.97
2023-07-24T05:18:57.890Z,3.67
2023-07-24T05:21:24.760Z,3.97
2023-07-24T05:23:51.601Z,3.47
2023-07-24T05:26:18.460Z,3.80
2023-07-24T05:28:45.813Z,5.45
2023-07-24T05:31:12.396Z,3.70
2023-07-24T05:33:39.256Z,4.82
2023-07-24T05:36:05.980Z,4.30
2023-07-24T05:38:33.176Z,4.25
2023-07-24T05:41:01.605Z,4.07
2023-07-24T05:45:56.781Z,4.32
2023-07-24T05:48:24.788Z,4.18
2023-07-24T05:50:51.815Z,4.25
2023-07-24T05:53:18.833Z,4.85
2023-07-24T05:55:46.213Z,4.20
2023-07-24T05:58:13.269Z,3.83
2023-07-24T06:00:40.136Z,3.97
2023-07-24T06:03:08.686Z,5.57
2023-07-24T06:05:36.165Z,5.00
2023-07-24T06:08:02.860Z,5.15
2023-07-24T06:10:29.622Z,4.47
2023-07-24T06:12:56.999Z,5.43
2023-07-24T06:15:23.694Z,5.80
2023-07-24T06:17:52.532Z,3.95
2023-07-24T06:20:21.182Z,4.45
2023-07-24T06:22:47.857Z,5.20
2023-07-24T06:25:14.532Z,4.18
2023-07-24T06:27:41.149Z,4.63
2023-07-24T06:30:15.104Z,5.40
2023-07-24T06:32:42.984Z,5.13
2023-07-24T06:35:10.021Z,4.20
2023-07-24T06:37:36.839Z,5.78
2023-07-24T06:40:04.355Z,6.03
2023-07-24T06:42:31.176Z,4.57
2023-07-24T06:44:57.731Z,5.50
2023-07-24T06:47:24.427Z,7.72
2023-07-24T06:49:51.201Z,5.97
2023-07-24T06:52:17.719Z,4.38
2023-07-24T06:54:44.876Z,4.20
2023-07-24T06:57:11.410Z,4.82
2023-07-24T06:59:38.010Z,4.60
2023-07-24T07:02:04.938Z,5.40
2023-07-24T07:04:31.587Z,4.93
2023-07-24T07:06:58.227Z,5.80
2023-07-24T07:09:25.149Z,5.75
2023-07-24T07:11:51.628Z,5.30
2023-07-24T07:14:18.482Z,5.85
2023-07-24T07:16:45.649Z,4.93
2023-07-24T07:19:12.414Z,4.15
2023-07-24T07:21:39.285Z,4.57
2023-07-24T07:24:06.214Z,5.45
2023-07-24T07:26:33.340Z,4.30
2023-07-24T07:29:01.058Z,10.13
2023-07-24T07:31:28.045Z,4.30
2023-07-24T07:33:54.930Z,5.85
2023-07-24T07:36:24.130Z,5.20
2023-07-24T07:38:50.966Z,4.45
2023-07-24T07:41:17.824Z,4.63
2023-07-24T07:43:44.380Z,5.15
2023-07-24T07:46:12.282Z,4.13
2023-07-24T07:48:39.078Z,6.68
2023-07-24T07:51:05.820Z,5.13
2023-07-24T07:53:33.150Z,7.85
2023-07-24T07:56:03.402Z,4.75
2023-07-24T07:58:30.061Z,5.00
2023-07-24T08:00:56.985Z,5.32
2023-07-24T08:03:23.994Z,5.00
2023-07-24T08:05:50.961Z,4.43
2023-07-24T08:08:17.606Z,4.45
2023-07-24T08:10:44.277Z,5.50
2023-07-24T08:13:10.910Z,5.95
2023-07-24T08:15:38.853Z,5.53
2023-07-24T08:18:06.448Z,4.13
2023-07-24T08:20:38.141Z,5.18
2023-07-24T08:23:04.985Z,5.97
2023-07-24T08:25:31.797Z,4.40
2023-07-24T08:28:05.397Z,6.18
2023-07-24T08:30:33.269Z,4.68
2023-07-24T08:33:00.695Z,5.53
2023-07-24T08:35:27.949Z,4.68
2023-07-24T08:37:54.950Z,4.72
2023-07-24T08:40:21.784Z,5.95
2023-07-24T08:42:51.995Z,5.38
2023-07-24T08:45:19.422Z,4.57
2023-07-24T08:47:46.489Z,5.78
2023-07-24T08:50:16.459Z,5.63
2023-07-24T08:52:46.315Z,4.60
2023-07-24T08:55:14.639Z,5.47
2023-07-24T09:00:08.503Z,5.13
2023-07-24T09:02:36.470Z,5.13
2023-07-24T09:05:04.633Z,5.57
2023-07-24T09:07:32.415Z,5.05
2023-07-24T09:09:59.289Z,5.57
2023-07-24T09:12:26.052Z,4.70
2023-07-24T09:15:07.228Z,5.20
2023-07-24T09:17:34.926Z,6.30
2023-07-24T09:20:03.156Z,5.75
2023-07-24T09:22:29.832Z,7.85
2023-07-24T09:24:58.357Z,5.03
2023-07-24T09:27:32.410Z,7.72
2023-07-24T09:29:59.723Z,5.60
2023-07-24T09:32:27.719Z,5.38
2023-07-24T09:34:56.272Z,5.47
2023-07-24T09:37:32.341Z,6.07
2023-07-24T09:40:00.989Z,6.20
2023-07-24T09:42:44.780Z,5.13
2023-07-24T09:45:23.336Z,5.13
2023-07-24T09:47:56.686Z,5.65
2023-07-24T09:50:25.836Z,6.57
2023-07-24T09:52:53.276Z,6.07
2023-07-24T09:55:31.066Z,6.03
2023-07-24T09:57:59.828Z,5.63
2023-07-24T10:00:26.943Z,6.65
2023-07-24T10:02:54.047Z,6.05
2023-07-24T10:05:21.461Z,6.63
2023-07-24T10:07:49.285Z,6.43
2023-07-24T10:10:16.976Z,6.65
2023-07-24T10:12:44.733Z,6.63
2023-07-24T10:15:12.919Z,5.80
2023-07-24T10:17:41.619Z,6.68
2023-07-24T10:20:13.137Z,7.35
2023-07-24T10:22:44.606Z,6.90
2023-07-24T10:25:12.984Z,7.03
2023-07-24T10:27:48.392Z,7.45
2023-07-24T10:30:33.735Z,6.47
2023-07-24T10:33:13.486Z,6.80
2023-07-24T10:35:47.117Z,6.43
2023-07-24T10:38:17.516Z,5.97
2023-07-24T10:40:46.464Z,5.95
2023-07-24T10:43:18.817Z,7.38
2023-07-24T10:45:53.650Z,6.05
2023-07-24T10:48:23.422Z,6.97
2023-07-24T10:50:54.285Z,6.55
2023-07-24T10:53:23.316Z,7.50
2023-07-24T10:55:51.998Z,7.88
2023-07-24T10:58:18.636Z,7.82
2023-07-24T11:00:47.276Z,6.28
2023-07-24T11:03:15.225Z,10.98
2023-07-24T11:05:43.031Z,7.45
2023-07-24T11:08:17.046Z,7.45
2023-07-24T11:10:52.531Z,8.02
2023-07-24T11:13:21.831Z,7.18
2023-07-24T11:15:50.663Z,8.65
2023-07-24T11:18:17.825Z,8.45
2023-07-24T11:20:47.489Z,7.35
2023-07-24T11:23:14.894Z,6.93
2023-07-24T11:25:42.082Z,9.07
2023-07-24T11:28:11.153Z,9.20
2023-07-24T11:30:38.028Z,8.45
2023-07-24T11:33:06.898Z,5.75
2023-07-24T11:35:34.446Z,7.47
2023-07-24T11:38:00.998Z,7.30
2023-07-24T11:40:40.215Z,7.68
2023-07-24T11:43:16.890Z,7.78
2023-07-24T11:45:44.607Z,7.82
2023-07-24T11:48:12.598Z,8.98
2023-07-24T11:50:50.214Z,8.63
2023-07-24T11:53:21.666Z,8.80
2023-07-24T11:55:49.038Z,7.35
2023-07-24T11:58:17.432Z,8.10
2023-07-24T12:00:44.236Z,7.93
2023-07-24T12:03:11.190Z,14.48
2023-07-24T12:05:46.691Z,8.10
2023-07-24T12:08:15.319Z,8.32
2023-07-24T12:10:42.237Z,7.82
2023-07-24T12:13:08.724Z,7.47
2023-07-24T12:15:36.459Z,8.18
2023-07-24T12:18:05.397Z,9.07
2023-07-24T12:20:32.483Z,9.90
2023-07-24T12:22:59.307Z,8.98
2023-07-24T12:25:26.001Z,8.55
2023-07-24T12:27:52.609Z,7.43
2023-07-24T12:30:19.798Z,8.85
2023-07-24T12:32:46.602Z,7.50
2023-07-24T12:35:16.117Z,9.23
2023-07-24T12:37:43.725Z,8.70
2023-07-24T12:40:10.537Z,6.95
2023-07-24T12:42:37.062Z,7.82
2023-07-24T12:45:04.791Z,8.15
2023-07-24T12:47:32.407Z,10.27
2023-07-24T12:50:00.256Z,7.82
2023-07-24T12:52:27.696Z,8.52
2023-07-24T12:55:01.789Z,7.57
2023-07-24T12:57:29.079Z,7.60
2023-07-24T12:59:55.637Z,10.45
2023-07-24T13:02:22.172Z,7.65
2023-07-24T13:04:48.712Z,8.23
2023-07-24T13:07:15.320Z,11.57
2023-07-24T13:09:41.805Z,8.32
2023-07-24T13:12:09.375Z,10.00
2023-07-24T13:14:35.858Z,6.70
2023-07-24T13:17:02.789Z,9.55
2023-07-24T13:19:29.377Z,7.32
2023-07-24T13:21:55.897Z,8.25
2023-07-24T13:24:22.447Z,8.00
2023-07-24T13:26:48.958Z,10.07
2023-07-24T13:29:16.179Z,7.97
2023-07-24T13:31:42.740Z,7.43
2023-07-24T13:34:12.159Z,8.48
2023-07-24T13:36:38.823Z,7.95
2023-07-24T13:39:05.464Z,7.53
2023-07-24T13:41:32.338Z,8.05
2023-07-24T13:43:59.112Z,7.88
2023-07-24T13:46:25.589Z,7.43
2023-07-24T13:48:52.221Z,6.93
2023-07-24T13:51:18.711Z,9.48
2023-07-24T13:53:47.219Z,8.80
2023-07-24T13:56:15.119Z,7.88
2023-07-24T13:58:41.623Z,9.07
2023-07-24T14:01:08.482Z,8.25
2023-07-24T14:03:35.216Z,6.65
2023-07-24T14:06:01.877Z,11.00
2023-07-24T14:08:28.444Z,7.75
2023-07-24T14:10:54.951Z,7.22
2023-07-24T14:13:21.393Z,8.15
2023-07-24T14:15:47.845Z,8.05
2023-07-24T14:18:14.367Z,6.70
2023-07-24T14:20:41.635Z,7.72
2023-07-24T14:23:09.260Z,8.00
2023-07-24T14:25:36.635Z,8.65
2023-07-24T14:28:03.183Z,8.18
2023-07-24T14:30:30.592Z,7.93
2023-07-24T14:32:57.302Z,7.45
2023-07-24T14:35:23.870Z,7.65
2023-07-24T14:37:50.374Z,9.27
2023-07-24T14:40:16.885Z,7.50
2023-07-24T14:42:43.386Z,8.40
2023-07-24T14:45:10.471Z,10.40
2023-07-24T14:47:36.969Z,7.95
2023-07-24T14:50:03.653Z,11.65
2023-07-24T14:52:30.192Z,7.30
2023-07-24T14:54:56.640Z,8.60
2023-07-24T14:57:26.102Z,9.90
2023-07-24T14:59:53.779Z,8.02
2023-07-24T15:02:20.404Z,7.18
2023-07-24T15:04:47.059Z,8.45
2023-07-24T15:07:13.652Z,8.73
2023-07-24T15:09:40.124Z,7.63
2023-07-24T15:12:06.821Z,7.45
2023-07-24T15:14:33.443Z,7.38
2023-07-24T15:17:00.042Z,9.68
2023-07-24T15:19:26.523Z,10.20
2023-07-24T15:21:53.303Z,7.43
2023-07-24T15:24:20.387Z,7.13
2023-07-24T15:26:46.975Z,11.13
2023-07-24T15:29:18.900Z,8.32
2023-07-24T15:31:46.353Z,8.82
2023-07-24T15:34:13.036Z,9.40
2023-07-24T15:36:39.738Z,7.63
2023-07-24T15:39:06.438Z,7.00
2023-07-24T15:41:33.899Z,7.88
2023-07-24T15:44:00.878Z,8.43
2023-07-24T15:46:30.406Z,8.20
2023-07-24T15:48:57.857Z,9.00
2023-07-24T15:51:26.028Z,6.93
2023-07-24T15:53:52.559Z,9.93
2023-07-24T15:56:19.543Z,8.52
2023-07-24T15:58:47.497Z,12.60
2023-07-24T16:01:14.018Z,7.00
2023-07-24T16:03:40.619Z,9.18
2023-07-24T16:06:07.327Z,7.25
2023-07-24T16:08:33.851Z,7.55
2023-07-24T16:11:00.474Z,6.60
2023-07-24T16:13:27.103Z,7.18
2023-07-24T16:15:53.751Z,6.18
2023-07-24T16:18:24.919Z,6.75
2023-07-24T16:20:51.649Z,7.03
2023-07-24T16:23:18.203Z,7.43
2023-07-24T16:25:44.805Z,6.28
2023-07-24T16:28:11.351Z,5.93
2023-07-24T16:30:37.923Z,7.85
2023-07-24T16:33:04.670Z,6.82
2023-07-24T16:35:31.570Z,6.78
2023-07-24T16:37:58.069Z,8.13
2023-07-24T16:40:25.166Z,5.43
2023-07-24T16:42:56.535Z,5.43
2023-07-24T16:47:52.954Z,6.95
2023-07-24T16:50:19.511Z,7.75
2023-07-24T16:52:46.033Z,7.38
2023-07-24T16:55:12.514Z,6.97
2023-07-24T16:57:39.252Z,7.18
2023-07-24T17:00:07.041Z,5.97
2023-07-24T17:02:36.590Z,6.85
2023-07-24T17:05:03.310Z,4.82
2023-07-24T17:07:29.829Z,6.50
2023-07-24T17:09:56.281Z,16.67
2023-07-24T17:12:22.762Z,5.28
2023-07-24T17:14:49.254Z,3.45
2023-07-24T17:17:15.762Z,5.05
2023-07-24T17:19:43.082Z,5.00
2023-07-24T17:22:09.915Z,5.05
2023-07-24T17:24:36.833Z,3.42
2023-07-24T17:27:03.725Z,4.05
2023-07-24T17:29:30.246Z,2.58
2023-07-24T17:31:56.810Z,6.63
2023-07-24T17:34:23.412Z,1.50
2023-07-24T17:36:49.948Z,1.83
2023-07-24T17:43:04.835Z,2.10
2023-07-24T17:45:31.431Z,2.47
2023-07-24T17:47:57.973Z,2.30
2023-07-24T17:50:24.684Z,2.67
2023-07-24T17:52:51.266Z,3.65
2023-07-24T17:55:17.818Z,2.00
2023-07-24T17:57:50.515Z,2.17
2023-07-24T18:00:18.723Z,3.00
2023-07-24T18:02:45.929Z,1.70
2023-07-24T18:05:12.618Z,2.70
2023-07-24T18:07:42.346Z,1.80
2023-07-24T18:10:10.964Z,3.05
2023-07-24T18:12:39.822Z,3.92
2023-07-24T18:17:34.684Z,2.08
2023-07-24T18:20:01.566Z,3.58
2023-07-24T18:22:30.083Z,2.40
2023-07-24T18:24:57.055Z,2.08
2023-07-24T18:27:24.039Z,2.08
2023-07-24T18:29:50.624Z,2.90
2023-07-24T18:32:18.978Z,2.28
2023-07-24T18:34:46.090Z,1.90
2023-07-24T18:37:13.449Z,1.63
2023-07-24T18:39:40.378Z,5.13
2023-07-24T18:42:07.131Z,2.33
2023-07-24T18:44:35.054Z,1.70
2023-07-24T18:47:01.689Z,2.00
2023-07-24T18:49:28.294Z,5.03
2023-07-24T18:51:54.930Z,3.75
2023-07-24T18:54:24.187Z,2.40
2023-07-24T18:56:51.038Z,3.20
2023-07-24T18:59:18.068Z,2.72
2023-07-24T19:01:44.725Z,2.67
2023-07-24T19:04:11.415Z,2.13
2023-07-24T19:06:38.765Z,2.67
2023-07-24T19:09:05.501Z,2.97
2023-07-24T19:11:33.589Z,3.80
2023-07-24T19:14:00.235Z,2.58
2023-07-24T19:16:27.026Z,2.17
2023-07-24T19:18:53.855Z,2.08
2023-07-24T19:21:20.453Z,2.22
2023-07-24T19:23:47.036Z,2.70
2023-07-24T19:26:14.686Z,4.60
2023-07-24T19:28:41.272Z,2.42
2023-07-24T19:31:08.135Z,2.20
2023-07-24T19:33:34.741Z,2.42
2023-07-24T19:36:02.327Z,2.45
2023-07-24T19:38:29.293Z,3.42
2023-07-24T19:41:00.227Z,3.28
2023-07-24T19:43:27.282Z,2.67
2023-07-24T19:45:54.515Z,2.50
2023-07-24T19:48:22.226Z,2.92
2023-07-24T19:50:50.925Z,3.47
2023-07-24T19:53:19.895Z,2.90
2023-07-24T19:55:48.928Z,2.53
2023-07-24T19:58:26.976Z,2.65
2023-07-24T20:00:57.799Z,5.82
2023-07-24T20:03:24.507Z,2.75
2023-07-24T20:05:56.920Z,3.17
2023-07-24T20:08:24.842Z,2.72
2023-07-24T20:10:52.389Z,4.20
2023-07-24T20:13:19.735Z,3.38
2023-07-24T20:15:47.140Z,1.77
2023-07-24T20:18:14.742Z,4.60
2023-07-24T20:20:51.355Z,2.90
2023-07-24T20:23:22.519Z,3.33
2023-07-24T20:25:53.770Z,3.50
2023-07-24T20:28:25.025Z,4.57
2023-07-24T20:30:51.855Z,2.53
2023-07-24T20:33:18.546Z,4.47
2023-07-24T20:35:46.410Z,5.07
2023-07-24T20:38:28.817Z,11.43
2023-07-24T20:40:56.204Z,4.90
2023-07-24T20:43:22.882Z,2.97
2023-07-24T20:45:51.883Z,4.53
2023-07-24T20:48:18.772Z,27.58
2023-07-24T20:50:45.624Z,9.07
2023-07-24T20:53:12.276Z,20.35
2023-07-24T20:55:39.149Z,3.00
2023-07-24T20:58:05.777Z,7.97
2023-07-24T21:00:32.428Z,3.40
2023-07-24T21:02:59.626Z,3.05
2023-07-24T21:05:26.312Z,3.47
2023-07-24T21:07:55.068Z,4.10
2023-07-24T21:10:21.688Z,4.13
2023-07-24T21:12:48.365Z,3.47
2023-07-24T21:15:14.941Z,3.35
2023-07-24T21:17:41.577Z,3.05
2023-07-24T21:20:08.710Z,3.05
2023-07-24T21:22:35.227Z,2.33
2023-07-24T21:25:02.088Z,4.75
2023-07-24T21:27:28.759Z,4.00
2023-07-24T21:29:56.620Z,4.25
2023-07-24T21:32:23.464Z,3.30
2023-07-24T21:34:50.442Z,3.90
2023-07-24T21:37:17.104Z,2.83
2023-07-24T21:39:43.954Z,2.65
2023-07-24T21:42:10.839Z,1.98
2023-07-24T21:44:37.510Z,3.50
2023-07-24T21:47:04.660Z,2.75
2023-07-24T21:49:32.536Z,5.53
2023-07-24T21:52:01.185Z,3.78
2023-07-24T21:54:28.268Z,3.15
2023-07-24T21:56:55.089Z,3.55
2023-07-24T21:59:21.703Z,2.83
2023-07-24T22:01:48.487Z,3.30
2023-07-24T22:04:15.374Z,2.70
2023-07-24T22:06:42.144Z,3.65
2023-07-24T22:09:09.012Z,3.45
2023-07-24T22:11:36.963Z,4.35
2023-07-24T22:14:04.074Z,3.40
2023-07-24T22:16:30.740Z,2.97
2023-07-24T22:18:57.384Z,3.10
2023-07-24T22:21:24.130Z,3.80
2023-07-24T22:23:51.177Z,2.92
2023-07-24T22:26:18.018Z,3.28
2023-07-24T22:28:44.613Z,3.75
2023-07-24T22:31:12.669Z,3.70
2023-07-24T22:33:39.545Z,2.50
2023-07-24T22:36:06.269Z,3.33
2023-07-24T22:38:32.923Z,3.45
2023-07-24T22:40:59.700Z,4.78
2023-07-24T22:43:26.283Z,4.63
2023-07-24T22:45:53.200Z,4.15
2023-07-24T22:48:19.783Z,2.40
2023-07-24T22:50:47.207Z,4.25
2023-07-24T22:53:13.821Z,3.78
2023-07-24T22:55:40.386Z,3.30
2023-07-24T22:58:08.687Z,3.58
2023-07-24T23:00:35.612Z,2.22
2023-07-24T23:03:02.436Z,4.30
2023-07-24T23:05:31.343Z,2.15
2023-07-24T23:07:57.979Z,2.90
2023-07-24T23:10:24.663Z,3.38
2023-07-24T23:12:51.611Z,2.72
2023-07-24T23:15:18.434Z,3.10
2023-07-24T23:17:45.061Z,2.67
2023-07-24T23:20:12.455Z,3.35
2023-07-24T23:22:39.430Z,2.78
2023-07-24T23:25:09.606Z,3.50
2023-07-24T23:27:36.179Z,6.10
2023-07-24T23:30:02.823Z,2.88
2023-07-24T23:32:29.652Z,2.70
2023-07-24T23:34:56.321Z,3.90
2023-07-24T23:37:22.936Z,2.20
2023-07-24T23:39:49.610Z,2.30
2023-07-24T23:42:16.266Z,2.65
2023-07-24T23:44:43.296Z,2.70
2023-07-24T23:47:10.135Z,5.55
2023-07-24T23:49:36.663Z,4.90
2023-07-24T23:52:03.789Z,3.40
2023-07-24T23:54:30.874Z,2.75
2023-07-24T23:56:57.552Z,2.15
2023-07-24T23:59:24.117Z,4.13
